createdAt,value
2023-02-09T00:01:00.202Z,1018.7
2023-02-09T00:02:16.502Z,1018.7
2023-02-09T00:03:32.784Z,1018.7
2023-02-09T00:04:49.081Z,1018.7
2023-02-09T00:06:04.395Z,1018.8
2023-02-09T00:07:20.691Z,1018.7
2023-02-09T00:08:36.985Z,1018.7
2023-02-09T00:09:53.282Z,1018.7
2023-02-09T00:11:09.584Z,1018.6
2023-02-09T00:12:25.882Z,1018.7
2023-02-09T00:13:42.171Z,1018.6
2023-02-09T00:14:58.462Z,1018.7
2023-02-09T00:16:14.764Z,1018.7
2023-02-09T00:17:31.061Z,1018.6
2023-02-09T00:18:47.360Z,1018.6
2023-02-09T00:20:03.646Z,1018.6
2023-02-09T00:21:19.935Z,1018.5
2023-02-09T00:22:35.256Z,1018.6
2023-02-09T00:23:51.554Z,1018.7
2023-02-09T00:25:07.856Z,1018.7
2023-02-09T00:26:24.153Z,1018.6
2023-02-09T00:27:40.440Z,1018.7
2023-02-09T00:28:56.730Z,1018.7
2023-02-09T00:30:13.040Z,1018.7
2023-02-09T00:31:29.334Z,1018.7
2023-02-09T00:32:45.633Z,1018.7
2023-02-09T00:34:01.916Z,1018.7
2023-02-09T00:35:18.211Z,1018.7
2023-02-09T00:36:34.524Z,1018.7
2023-02-09T00:37:50.807Z,1018.7
2023-02-09T00:39:06.114Z,1018.7
2023-02-09T00:40:22.425Z,1018.7
2023-02-09T00:41:38.723Z,1018.6
2023-02-09T00:42:55.006Z,1018.7
2023-02-09T00:44:11.297Z,1018.6
2023-02-09T00:45:27.609Z,1018.6
2023-02-09T00:46:43.891Z,1018.6
2023-02-09T00:48:00.202Z,1018.6
2023-02-09T00:49:16.489Z,1018.6
2023-02-09T00:50:32.793Z,1018.6
2023-02-09T00:51:49.089Z,1018.6
2023-02-09T00:53:05.383Z,1018.6
2023-02-09T00:54:21.665Z,1018.5
2023-02-09T00:55:36.976Z,1018.6
2023-02-09T00:56:53.276Z,1018.6
2023-02-09T00:58:09.578Z,1018.6
2023-02-09T00:59:25.877Z,1018.6
2023-02-09T01:00:42.164Z,1018.6
2023-02-09T01:01:58.460Z,1018.6
2023-02-09T01:03:13.774Z,1018.5
2023-02-09T01:04:29.085Z,1018.6
2023-02-09T01:05:44.418Z,1018.6
2023-02-09T01:06:59.726Z,1018.5
2023-02-09T01:08:16.018Z,1018.5
2023-02-09T01:09:32.322Z,1018.5
2023-02-09T01:10:48.603Z,1018.5
2023-02-09T01:12:04.919Z,1018.4
2023-02-09T01:13:21.206Z,1018.4
2023-02-09T01:14:37.481Z,1018.5
2023-02-09T01:15:53.800Z,1018.5
2023-02-09T01:17:10.094Z,1018.4
2023-02-09T01:18:26.381Z,1018.4
2023-02-09T01:19:42.675Z,1018.4
2023-02-09T01:20:58.970Z,1018.4
2023-02-09T01:22:15.259Z,1018.3
2023-02-09T01:23:30.571Z,1018.4
2023-02-09T01:24:46.885Z,1018.3
2023-02-09T01:26:03.168Z,1018.3
2023-02-09T01:27:19.471Z,1018.3
2023-02-09T01:28:35.772Z,1018.3
2023-02-09T01:29:52.064Z,1018.3
2023-02-09T01:31:08.353Z,1018.2
2023-02-09T01:32:24.656Z,1018.3
2023-02-09T01:33:39.964Z,1018.3
2023-02-09T01:34:55.277Z,1018.3
2023-02-09T01:36:11.575Z,1018.3
2023-02-09T01:37:27.868Z,1018.3
2023-02-09T01:38:44.159Z,1018.3
2023-02-09T01:40:00.470Z,1018.3
2023-02-09T01:41:15.786Z,1018.3
2023-02-09T01:42:31.085Z,1018.3
2023-02-09T01:43:47.395Z,1018.2
2023-02-09T01:45:03.672Z,1018.2
2023-02-09T01:46:19.972Z,1018.2
2023-02-09T01:47:36.282Z,1018.2
2023-02-09T01:48:52.563Z,1018.1
2023-02-09T01:50:08.861Z,1018.2
2023-02-09T01:51:25.167Z,1018.1
2023-02-09T01:52:40.481Z,1018.1
2023-02-09T01:53:56.783Z,1018.1
2023-02-09T01:55:13.068Z,1018.1
2023-02-09T01:56:29.364Z,1018.1
2023-02-09T01:57:45.667Z,1018.1
2023-02-09T01:59:01.959Z,1018.1
2023-02-09T02:00:18.253Z,1018
2023-02-09T02:01:34.562Z,1018.2
2023-02-09T02:02:50.841Z,1018.1
2023-02-09T02:04:07.150Z,1018.1
2023-02-09T02:05:23.439Z,1018.1
2023-02-09T02:06:39.740Z,1018.1
2023-02-09T02:07:56.027Z,1018.1
2023-02-09T02:09:11.335Z,1018.1
2023-02-09T02:10:27.649Z,1018.2
2023-02-09T02:11:43.947Z,1018.2
2023-02-09T02:13:00.241Z,1018.2
2023-02-09T02:14:16.519Z,1018.2
2023-02-09T02:15:32.829Z,1018.1
2023-02-09T02:16:49.130Z,1018.1
2023-02-09T02:18:05.414Z,1018.1
2023-02-09T02:19:21.707Z,1018.1
2023-02-09T02:20:38.015Z,1018.1
2023-02-09T02:21:54.298Z,1018.1
2023-02-09T02:23:10.595Z,1018.1
2023-02-09T02:24:26.895Z,1018
2023-02-09T02:25:42.214Z,1018.1
2023-02-09T02:26:58.515Z,1018.1
2023-02-09T02:28:14.797Z,1018
2023-02-09T02:29:31.105Z,1018
2023-02-09T02:30:47.000Z,1018
2023-02-09T02:32:03.693Z,1018.1
2023-02-09T02:33:19.976Z,1018.1
2023-02-09T02:34:36.290Z,1018
2023-02-09T02:35:52.567Z,1018
2023-02-09T02:37:08.880Z,1018
2023-02-09T02:38:25.152Z,1018
2023-02-09T02:39:41.469Z,1018
2023-02-09T02:40:57.761Z,1018
2023-02-09T02:42:13.069Z,1018
2023-02-09T02:43:29.360Z,1018
2023-02-09T02:44:45.673Z,1017.9
2023-02-09T02:46:01.962Z,1017.9
2023-02-09T02:47:18.245Z,1017.9
2023-02-09T02:48:34.548Z,1017.9
2023-02-09T02:49:50.848Z,1017.9
2023-02-09T02:51:07.146Z,1017.9
2023-02-09T02:52:23.438Z,1017.9
2023-02-09T02:53:39.727Z,1017.8
2023-02-09T02:54:56.020Z,1017.8
2023-02-09T02:56:12.337Z,1017.8
2023-02-09T02:57:28.619Z,1017.8
2023-02-09T02:58:43.934Z,1017.9
2023-02-09T03:00:00.226Z,1017.8
2023-02-09T03:01:16.517Z,1017.8
2023-02-09T03:02:32.812Z,1017.8
2023-02-09T03:03:49.125Z,1017.8
2023-02-09T03:05:05.421Z,1017.8
2023-02-09T03:06:21.715Z,1017.8
2023-02-09T03:07:37.997Z,1017.8
2023-02-09T03:08:54.292Z,1017.7
2023-02-09T03:10:10.608Z,1017.8
2023-02-09T03:11:26.893Z,1017.8
2023-02-09T03:12:43.197Z,1017.8
2023-02-09T03:15:15.779Z,1017.8
2023-02-09T03:16:31.085Z,1017.8
2023-02-09T03:17:47.380Z,1017.8
2023-02-09T03:19:03.681Z,1017.8
2023-02-09T03:20:19.980Z,1017.8
2023-02-09T03:21:36.270Z,1017.8
2023-02-09T03:22:52.582Z,1017.8
2023-02-09T03:24:08.873Z,1017.8
2023-02-09T03:25:25.169Z,1017.8
2023-02-09T03:26:41.468Z,1017.8
2023-02-09T03:29:14.053Z,1017.8
2023-02-09T03:30:30.356Z,1017.8
2023-02-09T03:31:46.631Z,1017.8
2023-02-09T03:33:01.956Z,1017.7
2023-02-09T03:34:18.251Z,1017.7
2023-02-09T03:35:34.547Z,1017.7
2023-02-09T03:36:50.838Z,1017.7
2023-02-09T03:38:07.150Z,1017.7
2023-02-09T03:39:23.436Z,1017.7
2023-02-09T03:40:39.723Z,1017.7
2023-02-09T03:41:56.037Z,1017.7
2023-02-09T03:43:12.332Z,1017.7
2023-02-09T03:44:28.619Z,1017.7
2023-02-09T03:45:44.920Z,1017.7
2023-02-09T03:47:01.200Z,1017.7
2023-02-09T03:48:17.501Z,1017.7
2023-02-09T03:49:32.822Z,1017.7
2023-02-09T03:50:48.131Z,1017.7
2023-02-09T03:52:03.451Z,1017.7
2023-02-09T03:53:18.762Z,1017.6
2023-02-09T03:54:34.063Z,1017.7
2023-02-09T03:55:50.363Z,1017.6
2023-02-09T03:57:06.663Z,1017.5
2023-02-09T03:58:22.959Z,1017.5
2023-02-09T03:59:39.266Z,1017.5
2023-02-09T04:00:55.556Z,1017.5
2023-02-09T04:02:11.845Z,1017.5
2023-02-09T04:03:28.147Z,1017.5
2023-02-09T04:04:44.452Z,1017.5
2023-02-09T04:06:00.738Z,1017.6
2023-02-09T04:07:17.033Z,1017.6
2023-02-09T04:08:33.337Z,1017.5
2023-02-09T04:09:49.612Z,1017.5
2023-02-09T04:11:04.949Z,1017.5
2023-02-09T04:12:21.228Z,1017.3
2023-02-09T04:13:37.532Z,1017.4
2023-02-09T04:14:53.836Z,1017.4
2023-02-09T04:16:10.117Z,1017.4
2023-02-09T04:17:26.421Z,1017.4
2023-02-09T04:18:42.725Z,1017.3
2023-02-09T04:19:59.017Z,1017.4
2023-02-09T04:21:15.305Z,1017.4
2023-02-09T04:22:31.599Z,1017.4
2023-02-09T04:23:47.896Z,1017.3
2023-02-09T04:25:04.186Z,1017.4
2023-02-09T04:26:20.497Z,1017.4
2023-02-09T04:27:35.801Z,1017.4
2023-02-09T04:28:52.095Z,1017.4
2023-02-09T04:31:24.689Z,1017.3
2023-02-09T04:32:40.976Z,1017.3
2023-02-09T04:33:57.272Z,1017.3
2023-02-09T04:35:13.577Z,1017.3
2023-02-09T04:36:29.881Z,1017.2
2023-02-09T04:37:46.177Z,1017.3
2023-02-09T04:39:02.458Z,1017.3
2023-02-09T04:40:18.764Z,1017.3
2023-02-09T04:41:35.058Z,1017.3
2023-02-09T04:42:51.360Z,1017.3
2023-02-09T04:44:06.660Z,1017.3
2023-02-09T04:45:22.953Z,1017.2
2023-02-09T04:46:39.260Z,1017.3
2023-02-09T04:47:55.565Z,1017.3
2023-02-09T04:49:11.841Z,1017.3
2023-02-09T04:51:44.447Z,1017.3
2023-02-09T04:53:00.750Z,1017.2
2023-02-09T04:54:17.039Z,1017.3
2023-02-09T04:55:33.329Z,1017.2
2023-02-09T04:56:49.633Z,1017.2
2023-02-09T04:58:05.916Z,1017.2
2023-02-09T04:59:22.218Z,1017.2
2023-02-09T05:00:37.521Z,1017.3
2023-02-09T05:01:53.823Z,1017.2
2023-02-09T05:03:10.104Z,1017.2
2023-02-09T05:04:26.416Z,1017.2
2023-02-09T05:05:42.711Z,1017.2
2023-02-09T05:06:59.012Z,1017.1
2023-02-09T05:08:15.311Z,1017.1
2023-02-09T05:09:31.598Z,1017.1
2023-02-09T05:10:47.891Z,1017.1
2023-02-09T05:12:04.187Z,1017.2
2023-02-09T05:13:20.488Z,1017.1
2023-02-09T05:14:36.788Z,1017.2
2023-02-09T05:17:09.379Z,1017.2
2023-02-09T05:18:24.696Z,1017.2
2023-02-09T05:19:40.985Z,1017.2
2023-02-09T05:20:57.283Z,1017.2
2023-02-09T05:22:13.569Z,1017.1
2023-02-09T05:23:29.871Z,1017.2
2023-02-09T05:24:46.161Z,1017.2
2023-02-09T05:26:02.460Z,1017.1
2023-02-09T05:27:18.754Z,1017.2
2023-02-09T05:28:35.067Z,1017.1
2023-02-09T05:29:51.343Z,1017.1
2023-02-09T05:31:07.642Z,1017.1
2023-02-09T05:32:23.946Z,1017
2023-02-09T05:33:40.240Z,1017
2023-02-09T05:34:55.554Z,1017
2023-02-09T05:36:11.857Z,1017.1
2023-02-09T05:37:28.145Z,1017.1
2023-02-09T05:38:44.448Z,1017.1
2023-02-09T05:40:00.730Z,1017
2023-02-09T05:41:17.028Z,1017.1
2023-02-09T05:42:33.333Z,1017
2023-02-09T05:43:49.618Z,1017.1
2023-02-09T05:45:05.928Z,1017.1
2023-02-09T05:46:22.219Z,1017
2023-02-09T05:47:38.508Z,1017
2023-02-09T05:48:54.811Z,1017
2023-02-09T05:50:11.099Z,1017.1
2023-02-09T05:51:26.425Z,1017
2023-02-09T05:52:42.713Z,1017
2023-02-09T05:53:58.946Z,1017
2023-02-09T05:55:15.254Z,1017
2023-02-09T05:56:31.540Z,1017.1
2023-02-09T05:57:47.798Z,1017
2023-02-09T05:59:04.040Z,1017
2023-02-09T06:00:20.335Z,1017
2023-02-09T06:01:36.634Z,1017
2023-02-09T06:02:52.888Z,1017
2023-02-09T06:04:09.122Z,1017
2023-02-09T06:05:25.378Z,1017
2023-02-09T06:06:41.623Z,1017
2023-02-09T06:07:56.869Z,1017
2023-02-09T06:09:13.109Z,1016.9
2023-02-09T06:10:29.352Z,1017
2023-02-09T06:11:45.603Z,1016.9
2023-02-09T06:13:01.835Z,1017
2023-02-09T06:14:18.086Z,1017
2023-02-09T06:15:34.325Z,1016.9
2023-02-09T06:16:50.577Z,1016.9
2023-02-09T06:18:06.818Z,1016.9
2023-02-09T06:19:23.045Z,1016.9
2023-02-09T06:20:39.304Z,1016.9
2023-02-09T06:21:55.541Z,1016.9
2023-02-09T06:23:11.778Z,1016.9
2023-02-09T06:24:27.040Z,1016.9
2023-02-09T06:25:43.288Z,1016.9
2023-02-09T06:26:59.522Z,1016.9
2023-02-09T06:28:15.763Z,1016.9
2023-02-09T06:29:32.003Z,1016.9
2023-02-09T06:30:48.241Z,1016.9
2023-02-09T06:32:04.483Z,1017
2023-02-09T06:33:20.741Z,1017
2023-02-09T06:34:36.986Z,1017
2023-02-09T06:35:53.218Z,1017
2023-02-09T06:37:09.466Z,1017.1
2023-02-09T06:38:24.733Z,1017.1
2023-02-09T06:39:39.987Z,1017.2
2023-02-09T06:40:56.235Z,1017.2
2023-02-09T06:42:12.475Z,1017.2
2023-02-09T06:43:28.707Z,1017.2
2023-02-09T06:44:44.953Z,1017.2
2023-02-09T06:46:00.215Z,1017.2
2023-02-09T06:47:15.470Z,1017.2
2023-02-09T06:48:31.714Z,1017.2
2023-02-09T06:49:47.937Z,1017.2
2023-02-09T06:51:04.199Z,1017.2
2023-02-09T06:52:20.430Z,1017.2
2023-02-09T06:53:36.672Z,1017.2
2023-02-09T06:54:52.922Z,1017.2
2023-02-09T06:56:09.160Z,1017.3
2023-02-09T06:57:25.405Z,1017.2
2023-02-09T06:58:41.645Z,1017.2
2023-02-09T06:59:57.885Z,1017.2
2023-02-09T07:01:14.134Z,1017.3
2023-02-09T07:02:30.379Z,1017.3
2023-02-09T07:03:45.638Z,1017.3
2023-02-09T07:05:01.877Z,1017.2
2023-02-09T07:06:18.131Z,1017.2
2023-02-09T07:07:34.366Z,1017.2
2023-02-09T07:08:50.597Z,1017.2
2023-02-09T07:10:06.854Z,1017.2
2023-02-09T07:11:23.082Z,1017.3
2023-02-09T07:12:39.322Z,1017.2
2023-02-09T07:13:55.571Z,1017.2
2023-02-09T07:15:11.803Z,1017.3
2023-02-09T07:16:28.048Z,1017.2
2023-02-09T07:17:44.301Z,1017.2
2023-02-09T07:19:00.534Z,1017.1
2023-02-09T07:20:15.791Z,1017.1
2023-02-09T07:21:32.040Z,1017.2
2023-02-09T07:22:48.274Z,1017.2
2023-02-09T07:24:04.527Z,1017.2
2023-02-09T07:25:20.764Z,1017.2
2023-02-09T07:26:36.998Z,1017.2
2023-02-09T07:27:53.254Z,1017.2
2023-02-09T07:29:09.501Z,1017.2
2023-02-09T07:30:25.731Z,1017.2
2023-02-09T07:31:41.967Z,1017.2
2023-02-09T07:32:58.226Z,1017.1
2023-02-09T07:34:14.469Z,1017.1
2023-02-09T07:35:30.695Z,1017.1
2023-02-09T07:36:45.965Z,1017.1
2023-02-09T07:38:02.205Z,1017.1
2023-02-09T07:39:18.450Z,1017.1
2023-02-09T07:40:34.694Z,1017.2
2023-02-09T07:41:50.928Z,1017.2
2023-02-09T07:43:07.162Z,1017.2
2023-02-09T07:44:23.419Z,1017.1
2023-02-09T07:45:39.652Z,1017.1
2023-02-09T07:46:55.894Z,1017.1
2023-02-09T07:48:12.128Z,1017.1
2023-02-09T07:49:28.381Z,1017
2023-02-09T07:50:44.624Z,1017.1
2023-02-09T07:52:00.861Z,1017.1
2023-02-09T07:53:16.121Z,1017.1
2023-02-09T07:54:32.371Z,1017.1
2023-02-09T07:55:48.613Z,1017
2023-02-09T07:57:04.838Z,1017
2023-02-09T07:58:21.080Z,1017.1
2023-02-09T07:59:37.323Z,1017.1
2023-02-09T08:00:53.566Z,1017.1
2023-02-09T08:02:09.822Z,1017
2023-02-09T08:03:26.059Z,1017.1
2023-02-09T08:04:42.291Z,1017.2
2023-02-09T08:05:58.531Z,1017.2
2023-02-09T08:07:14.771Z,1017.1
2023-02-09T08:08:31.022Z,1017.2
2023-02-09T08:09:46.283Z,1017.1
2023-02-09T08:11:02.521Z,1017.2
2023-02-09T08:12:18.754Z,1017.2
2023-02-09T08:13:35.000Z,1017.2
2023-02-09T08:14:51.238Z,1017.2
2023-02-09T08:16:07.480Z,1017.2
2023-02-09T08:17:23.739Z,1017.1
2023-02-09T08:19:56.205Z,1017.2
2023-02-09T08:21:12.445Z,1017.2
2023-02-09T08:22:28.706Z,1017.1
2023-02-09T08:23:44.947Z,1017.1
2023-02-09T08:25:01.177Z,1017.2
2023-02-09T08:26:16.432Z,1017.1
2023-02-09T08:27:32.681Z,1017.1
2023-02-09T08:28:48.910Z,1017.1
2023-02-09T08:30:05.171Z,1017.1
2023-02-09T08:31:21.401Z,1017.1
2023-02-09T08:32:37.646Z,1017.1
2023-02-09T08:35:10.129Z,1017
2023-02-09T08:36:26.356Z,1017.1
2023-02-09T08:37:42.607Z,1017.1
2023-02-09T08:38:58.855Z,1017.1
2023-02-09T08:40:15.092Z,1017.1
2023-02-09T08:41:31.335Z,1017
2023-02-09T08:42:46.591Z,1017.2
2023-02-09T08:44:02.838Z,1017.1
2023-02-09T08:45:19.077Z,1017.1
2023-02-09T08:46:35.312Z,1017
2023-02-09T08:47:51.565Z,1016.9
2023-02-09T08:49:07.808Z,1017
2023-02-09T08:50:24.052Z,1017
2023-02-09T08:51:40.279Z,1016.9
2023-02-09T08:52:56.524Z,1016.9
2023-02-09T08:54:12.764Z,1017
2023-02-09T08:55:29.019Z,1016.9
2023-02-09T08:56:45.261Z,1016.9
2023-02-09T08:58:01.496Z,1016.9
2023-02-09T08:59:16.756Z,1016.9
2023-02-09T09:01:49.229Z,1016.9
2023-02-09T09:03:05.469Z,1016.8
2023-02-09T09:04:21.718Z,1016.8
2023-02-09T09:05:37.958Z,1016.8
2023-02-09T09:06:54.196Z,1016.9
2023-02-09T09:08:10.434Z,1016.9
2023-02-09T09:09:26.688Z,1016.8
2023-02-09T09:10:42.934Z,1016.9
2023-02-09T09:11:59.160Z,1016.9
2023-02-09T09:13:15.405Z,1016.9
2023-02-09T09:14:31.661Z,1016.9
2023-02-09T09:15:46.905Z,1016.8
2023-02-09T09:17:03.140Z,1016.8
2023-02-09T09:19:35.638Z,1016.8
2023-02-09T09:20:51.883Z,1016.9
2023-02-09T09:22:08.124Z,1016.9
2023-02-09T09:23:24.364Z,1016.8
2023-02-09T09:24:40.593Z,1016.8
2023-02-09T09:25:56.843Z,1016.9
2023-02-09T09:27:13.074Z,1016.9
2023-02-09T09:28:29.321Z,1016.8
2023-02-09T09:29:45.574Z,1016.8
2023-02-09T09:31:01.797Z,1016.8
2023-02-09T09:32:17.064Z,1016.9
2023-02-09T09:33:33.307Z,1016.9
2023-02-09T09:34:49.554Z,1016.9
2023-02-09T09:36:05.781Z,1016.9
2023-02-09T09:37:22.033Z,1017
2023-02-09T09:38:38.281Z,1016.9
2023-02-09T09:39:54.502Z,1017
2023-02-09T09:41:10.762Z,1016.9
2023-02-09T09:42:26.999Z,1016.9
2023-02-09T09:43:43.237Z,1016.9
2023-02-09T09:44:59.474Z,1016.9
2023-02-09T09:47:31.967Z,1017
2023-02-09T09:48:47.221Z,1017
2023-02-09T09:50:03.459Z,1017
2023-02-09T09:51:19.701Z,1017
2023-02-09T09:52:35.946Z,1016.9
2023-02-09T09:53:52.185Z,1016.9
2023-02-09T09:55:08.423Z,1016.9
2023-02-09T09:56:24.672Z,1016.9
2023-02-09T09:57:40.911Z,1016.9
2023-02-09T09:58:57.159Z,1016.9
2023-02-09T10:00:13.398Z,1016.9
2023-02-09T10:01:29.637Z,1016.9
2023-02-09T10:02:45.863Z,1016.9
2023-02-09T10:04:02.112Z,1016.9
2023-02-09T10:05:17.373Z,1017
2023-02-09T10:06:33.603Z,1016.9
2023-02-09T10:07:49.850Z,1016.9
2023-02-09T10:09:06.092Z,1016.9
2023-02-09T10:10:22.343Z,1016.9
2023-02-09T10:11:38.577Z,1016.8
2023-02-09T10:12:54.811Z,1016.8
2023-02-09T10:14:11.058Z,1016.9
2023-02-09T10:15:27.297Z,1016.9
2023-02-09T10:16:43.536Z,1016.9
2023-02-09T10:17:59.785Z,1016.9
2023-02-09T10:19:16.031Z,1016.9
2023-02-09T10:20:32.270Z,1016.9
2023-02-09T10:21:47.522Z,1016.9
2023-02-09T10:23:02.795Z,1016.9
2023-02-09T10:24:19.023Z,1016.8
2023-02-09T10:25:35.269Z,1016.9
2023-02-09T10:26:51.506Z,1016.9
2023-02-09T10:28:07.755Z,1016.8
2023-02-09T10:29:23.989Z,1016.8
2023-02-09T10:30:40.231Z,1016.8
2023-02-09T10:31:56.485Z,1016.7
2023-02-09T10:33:12.707Z,1016.7
2023-02-09T10:34:28.956Z,1016.6
2023-02-09T10:35:45.198Z,1016.5
2023-02-09T10:37:01.445Z,1016.5
2023-02-09T10:38:17.681Z,1016.5
2023-02-09T10:39:32.933Z,1016.4
2023-02-09T10:40:49.182Z,1016.4
2023-02-09T10:42:05.432Z,1016.4
2023-02-09T10:43:21.664Z,1016.3
2023-02-09T10:44:37.912Z,1016.2
2023-02-09T10:45:54.152Z,1016.2
2023-02-09T10:47:10.377Z,1016.2
2023-02-09T10:48:26.631Z,1016.1
2023-02-09T10:49:42.878Z,1016.1
2023-02-09T10:52:15.351Z,1016.1
2023-02-09T10:53:31.586Z,1016.1
2023-02-09T10:54:47.000Z,1016
2023-02-09T10:56:03.000Z,1016.1
2023-02-09T10:57:19.322Z,1016
2023-02-09T10:58:35.566Z,1016
2023-02-09T10:59:51.817Z,1016
2023-02-09T11:01:08.047Z,1016
2023-02-09T11:02:24.298Z,1016
2023-02-09T11:03:40.548Z,1016
2023-02-09T11:04:56.778Z,1016.1
2023-02-09T11:06:13.024Z,1015.9
2023-02-09T11:07:29.270Z,1015.9
2023-02-09T11:08:45.502Z,1015.8
2023-02-09T11:10:01.741Z,1015.7
2023-02-09T11:11:17.985Z,1015.6
2023-02-09T11:12:33.249Z,1015.6
2023-02-09T11:13:49.487Z,1015.5
2023-02-09T11:15:05.719Z,1015.5
2023-02-09T11:16:21.968Z,1015.4
2023-02-09T11:17:38.212Z,1015.4
2023-02-09T11:18:54.446Z,1015.3
2023-02-09T11:20:10.686Z,1015.2
2023-02-09T11:22:43.170Z,1015.2
2023-02-09T11:23:59.408Z,1015.1
2023-02-09T11:25:15.660Z,1015.2
2023-02-09T11:26:31.903Z,1015.2
2023-02-09T11:27:48.127Z,1015.3
2023-02-09T11:29:03.398Z,1015.3
2023-02-09T11:30:19.641Z,1015.4
2023-02-09T11:31:35.872Z,1015.5
2023-02-09T11:32:52.108Z,1015.5
2023-02-09T11:34:08.351Z,1015.5
2023-02-09T11:35:24.605Z,1015.5
2023-02-09T11:36:40.835Z,1015.5
2023-02-09T11:37:57.074Z,1015.5
2023-02-09T11:39:13.330Z,1015.5
2023-02-09T11:40:29.572Z,1015.4
2023-02-09T11:41:45.809Z,1015.3
2023-02-09T11:43:02.036Z,1015.4
2023-02-09T11:45:34.532Z,1015.3
2023-02-09T11:46:50.878Z,1015.3
2023-02-09T11:48:07.134Z,1015.2
2023-02-09T11:49:23.365Z,1015.3
2023-02-09T11:50:39.620Z,1015.4
2023-02-09T11:51:55.853Z,1015.4
2023-02-09T11:53:12.092Z,1015.5
2023-02-09T11:54:28.337Z,1015.4
2023-02-09T11:55:44.573Z,1015.4
2023-02-09T11:57:00.822Z,1015.4
2023-02-09T11:58:17.054Z,1015.3
2023-02-09T11:59:33.291Z,1015.3
2023-02-09T12:00:49.546Z,1015.2
2023-02-09T12:02:05.780Z,1015.2
2023-02-09T12:03:21.039Z,1015.2
2023-02-09T12:04:37.268Z,1015.1
2023-02-09T12:05:53.523Z,1015.1
2023-02-09T12:07:09.768Z,1015.1
2023-02-09T12:08:26.005Z,1015.1
2023-02-09T12:09:42.250Z,1015.1
2023-02-09T12:10:58.477Z,1015.1
2023-02-09T12:12:14.733Z,1015.1
2023-02-09T12:13:30.962Z,1014.9
2023-02-09T12:14:47.195Z,1015
2023-02-09T12:16:03.455Z,1014.9
2023-02-09T12:18:35.931Z,1014.9
2023-02-09T12:19:52.163Z,1014.9
2023-02-09T12:21:07.415Z,1014.9
2023-02-09T12:22:23.674Z,1014.9
2023-02-09T12:23:39.907Z,1015
2023-02-09T12:24:56.150Z,1015
2023-02-09T12:26:12.381Z,1014.9
2023-02-09T12:27:28.619Z,1014.9
2023-02-09T12:28:44.877Z,1014.9
2023-02-09T12:30:01.103Z,1014.8
2023-02-09T12:31:17.352Z,1014.8
2023-02-09T12:32:33.586Z,1014.7
2023-02-09T12:33:49.835Z,1014.7
2023-02-09T12:35:06.078Z,1014.6
2023-02-09T12:36:22.312Z,1014.6
2023-02-09T12:37:38.673Z,1014.6
2023-02-09T12:38:54.911Z,1014.6
2023-02-09T12:40:11.166Z,1014.7
2023-02-09T12:41:27.409Z,1014.7
2023-02-09T12:42:43.632Z,1014.7
2023-02-09T12:43:59.880Z,1014.6
2023-02-09T12:46:32.358Z,1014.6
2023-02-09T12:47:48.607Z,1014.6
2023-02-09T12:49:04.848Z,1014.6
2023-02-09T12:50:21.084Z,1014.5
2023-02-09T12:51:37.316Z,1014.5
2023-02-09T12:52:53.571Z,1014.4
2023-02-09T12:54:09.920Z,1014.5
2023-02-09T12:55:26.179Z,1014.4
2023-02-09T12:56:42.418Z,1014.4
2023-02-09T12:57:58.659Z,1014.4
2023-02-09T12:59:14.899Z,1014.5
2023-02-09T13:00:31.135Z,1014.5
2023-02-09T13:01:47.371Z,1014.5
2023-02-09T13:03:03.621Z,1014.6
2023-02-09T13:04:19.852Z,1014.6
2023-02-09T13:05:36.092Z,1014.6
2023-02-09T13:06:52.346Z,1014.6
2023-02-09T13:08:08.579Z,1014.6
2023-02-09T13:09:24.828Z,1014.5
2023-02-09T13:10:40.087Z,1014.6
2023-02-09T13:11:56.323Z,1014.6
2023-02-09T13:13:12.565Z,1014.6
2023-02-09T13:14:28.804Z,1014.6
2023-02-09T13:15:45.033Z,1014.6
2023-02-09T13:17:01.285Z,1014.6
2023-02-09T13:18:17.524Z,1014.6
2023-02-09T13:19:33.762Z,1014.7
2023-02-09T13:20:49.997Z,1014.6
2023-02-09T13:22:06.250Z,1014.7
2023-02-09T13:23:22.487Z,1014.7
2023-02-09T13:24:38.731Z,1014.8
2023-02-09T13:25:54.965Z,1014.8
2023-02-09T13:27:10.224Z,1014.8
2023-02-09T13:28:26.472Z,1014.8
2023-02-09T13:29:42.700Z,1014.8
2023-02-09T13:30:58.951Z,1014.8
2023-02-09T13:32:15.193Z,1014.7
2023-02-09T13:33:31.434Z,1014.8
2023-02-09T13:34:47.675Z,1014.8
2023-02-09T13:36:03.906Z,1014.8
2023-02-09T13:37:20.153Z,1014.8
2023-02-09T13:39:52.626Z,1014.8
2023-02-09T13:41:08.881Z,1014.7
2023-02-09T13:42:25.122Z,1014.7
2023-02-09T13:43:40.376Z,1014.7
2023-02-09T13:44:56.610Z,1014.7
2023-02-09T13:46:12.847Z,1014.7
2023-02-09T13:47:29.083Z,1014.7
2023-02-09T13:48:45.331Z,1014.7
2023-02-09T13:50:01.576Z,1014.7
2023-02-09T13:51:17.821Z,1014.7
2023-02-09T13:52:34.051Z,1014.6
2023-02-09T13:55:06.543Z,1014.6
2023-02-09T13:56:22.773Z,1014.6
2023-02-09T13:57:39.022Z,1014.5
2023-02-09T13:58:55.270Z,1014.6
2023-02-09T14:00:10.519Z,1014.5
2023-02-09T14:01:26.767Z,1014.5
2023-02-09T14:02:42.994Z,1014.5
2023-02-09T14:03:59.232Z,1014.5
2023-02-09T14:05:15.473Z,1014.5
2023-02-09T14:06:31.722Z,1014.5
2023-02-09T14:07:47.967Z,1014.5
2023-02-09T14:10:20.453Z,1014.5
2023-02-09T14:11:36.682Z,1014.5
2023-02-09T14:12:52.928Z,1014.5
2023-02-09T14:14:09.168Z,1014.6
2023-02-09T14:15:25.410Z,1014.5
2023-02-09T14:17:56.914Z,1014.5
2023-02-09T14:19:12.175Z,1014.5
2023-02-09T14:20:27.429Z,1014.5
2023-02-09T14:21:43.671Z,1014.6
2023-02-09T14:22:59.901Z,1014.6
2023-02-09T14:24:16.135Z,1014.6
2023-02-09T14:25:32.378Z,1014.6
2023-02-09T14:26:48.619Z,1014.7
2023-02-09T14:28:04.860Z,1014.6
2023-02-09T14:29:21.112Z,1014.7
2023-02-09T14:30:37.347Z,1014.7
2023-02-09T14:33:09.828Z,1014.6
2023-02-09T14:34:26.063Z,1014.7
2023-02-09T14:35:42.309Z,1014.6
2023-02-09T14:36:58.678Z,1014.7
2023-02-09T14:38:13.944Z,1014.7
2023-02-09T14:39:30.178Z,1014.7
2023-02-09T14:40:46.424Z,1014.7
2023-02-09T14:42:02.664Z,1014.7
2023-02-09T14:43:18.889Z,1014.7
2023-02-09T14:44:35.142Z,1014.7
2023-02-09T14:45:51.388Z,1014.8
2023-02-09T14:47:07.772Z,1014.8
2023-02-09T14:48:23.014Z,1014.8
2023-02-09T14:49:39.257Z,1014.8
2023-02-09T14:50:55.497Z,1014.8
2023-02-09T14:52:11.744Z,1014.8
2023-02-09T14:53:27.980Z,1014.8
2023-02-09T14:56:00.454Z,1014.8
2023-02-09T14:57:16.701Z,1014.8
2023-02-09T14:58:32.951Z,1014.8
2023-02-09T14:59:49.190Z,1014.9
2023-02-09T15:01:05.428Z,1014.8
2023-02-09T15:03:37.920Z,1014.9
2023-02-09T15:04:53.182Z,1014.9
2023-02-09T15:06:08.427Z,1014.9
2023-02-09T15:07:24.664Z,1014.9
2023-02-09T15:08:40.901Z,1015
2023-02-09T15:11:13.393Z,1015
2023-02-09T15:12:29.636Z,1015
2023-02-09T15:13:45.862Z,1015
2023-02-09T15:15:02.106Z,1015.1
2023-02-09T15:16:18.346Z,1015
2023-02-09T15:17:34.595Z,1015
2023-02-09T15:18:50.837Z,1015.1
2023-02-09T15:20:07.082Z,1015
2023-02-09T15:21:23.323Z,1015
2023-02-09T15:22:38.562Z,1015
2023-02-09T15:23:54.811Z,1015
2023-02-09T15:25:11.062Z,1015
2023-02-09T15:26:27.301Z,1014.9
2023-02-09T15:27:43.533Z,1014.9
2023-02-09T15:28:59.780Z,1014.9
2023-02-09T15:30:16.020Z,1014.8
2023-02-09T15:31:32.268Z,1014.8
2023-02-09T15:34:03.770Z,1014.8
2023-02-09T15:35:19.015Z,1014.8
2023-02-09T15:36:35.264Z,1014.9
2023-02-09T15:37:50.530Z,1014.9
2023-02-09T15:39:05.784Z,1014.9
2023-02-09T15:40:22.014Z,1014.8
2023-02-09T15:41:38.253Z,1014.8
2023-02-09T15:42:54.501Z,1014.8
2023-02-09T15:44:10.742Z,1014.7
2023-02-09T15:45:26.988Z,1014.6
2023-02-09T15:46:43.232Z,1014.5
2023-02-09T15:47:59.455Z,1014.6
2023-02-09T15:49:15.713Z,1014.7
2023-02-09T15:50:31.941Z,1014.8
2023-02-09T15:51:48.187Z,1014.9
2023-02-09T15:53:04.436Z,1015
2023-02-09T15:54:20.662Z,1014.9
2023-02-09T15:55:35.935Z,1014.8
2023-02-09T15:56:52.173Z,1014.8
2023-02-09T15:58:08.408Z,1014.8
2023-02-09T15:59:24.652Z,1014.8
2023-02-09T16:00:40.886Z,1014.8
2023-02-09T16:01:57.134Z,1014.8
2023-02-09T16:03:13.377Z,1014.7
2023-02-09T16:04:29.622Z,1014.6
2023-02-09T16:05:45.854Z,1014.7
2023-02-09T16:07:02.084Z,1014.7
2023-02-09T16:08:18.333Z,1014.7
2023-02-09T16:09:34.576Z,1014.7
2023-02-09T16:10:50.826Z,1014.7
2023-02-09T16:12:06.083Z,1014.7
2023-02-09T16:13:22.320Z,1014.6
2023-02-09T16:14:38.551Z,1014.6
2023-02-09T16:15:54.805Z,1014.5
2023-02-09T16:17:11.037Z,1014.6
2023-02-09T16:18:27.270Z,1014.6
2023-02-09T16:19:43.518Z,1014.7
2023-02-09T16:20:59.756Z,1014.6
2023-02-09T16:22:16.005Z,1014.6
2023-02-09T16:23:32.248Z,1014.6
2023-02-09T16:24:48.478Z,1014.7
2023-02-09T16:26:04.731Z,1014.7
2023-02-09T16:27:20.967Z,1014.6